Rosharon, TX

3:29 PM CDT on September 02, 2014 (GMT -0500)
Sterling Lakes | Change Station
CLOSE
Current Station
Personal Weather Station
Location: Rosharon, TX
Elevation: 69 ft
Nearby Weather Stations

Elev 69 ft 29.44 °N, 95.44 °W | Updated 14 seconds ago

Partly Cloudy
Partly Cloudy
93.4 °F
Feels Like 100 °F
N
3.1
Wind Variable Wind from ESE
Gusts 10.7 mph

Today
High -- | Low -- °F
--% Chance of Precip.
Yesterday
High -- | Low -- °F
Precip. -- in
6:59 AM 7:42 PM
First Quarter, 54% visible
Pressure 29.96 in
Visibility 10.0 miles
Clouds Scattered Clouds 3700 ft
Mostly Cloudy 4700 ft
Mostly Cloudy 6000 ft
Heat Index 100 °F
Dew Point 71 °F
Humidity 48%
Rainfall 0.00 in
Snow Depth Not available.
UV 5 out of 12
Pollen 6.40 out of 12
Ozone Good
PM2.5 Moderate
Flu Activity Not available.
METAR KAXH 022015Z AUTO 14007G16KT 10SM SCT037 BKN047 BKN060 33/22 A2996 RMK AO2 T03290224

More Conditions Fewer Conditions

Pressure 29.96 in
Visibility 10.0 miles
Clouds Scattered Clouds 3700 ft
Mostly Cloudy 4700 ft
Mostly Cloudy 6000 ft
Heat Index 100 °F
Dew Point 71 °F
Humidity 48%
Rainfall 0.00 in
Snow Depth Not available.
UV 5 out of 12
Pollen 6.40 out of 12
Ozone Good
PM2.5 Moderate
Flu Activity Not available.
METAR KAXH 022015Z AUTO 14007G16KT 10SM SCT037 BKN047 BKN060 33/22 A2996 RMK AO2 T03290224

More Conditions Fewer Conditions

10-Day Weather Forecast

Almanac

Astronomy

Sep. 02, 2014 Rise Set
Actual Time 6:59 AM CDT 7:42 PM CDT
Civil Twilight 6:35 AM CDT 8:06 PM CDT
Nautical Twilight 6:07 AM CDT 8:35 PM CDT
Astronomical Twilight 5:38 AM CDT 9:04 PM CDT
Moon 2:13 PM CDT 12:16 AM CDT
Length of Visible Light 13h 31m
Length of Day
12h 42m
Tomorrow will be 1m 42s shorter.
First Quarter, 54% of the Moon is Illuminated
Today
First Quarter
Sep 8
Full
Sep 15
Last Quarter
Sep 24
New
Oct 1
First Quarter

Today's Extremes

State Highs State Lows

Community

WunderPhotos

Upload Photos

1,749,757 photos uploaded!

WunderBlogs® & News

By Dr. Jeff Masters
Director of Meteorology, Weather Underground
By Kari Strenfel
Meteorologist, Weather Underground
By Christopher C. Burt
Weather Historian, Weather Underground
September 2, 2014
September 2, 2014
September 2, 2014

Nearby

Air Quality

  Air Quality AQ Index Pollutant
Yesterday Good
PM2.5
Yesterday Good
OZONE
Current Moderate
PM2.5
Current Good
OZONE
Tuesday Good
OZONE
Tuesday Good
PM10
Wednesday Good
OZONE
Wednesday Good
PM10
Thursday Good
OZONE
Thursday Good
PM10
Friday Good
OZONE
Friday Good
PM10

Snow Depth

Station Depth Elevation
No new snow has been reported.

Earthquake Activity

City Distance Mag. Time & Date
No recent earthquake activity has been reported nearby.
Minimum magnitude displayed is 2.5.

Coastal Water Temperatures

Place Temperature
Eagle Point, TX 86.0 °F
USCG Freeport, TX 84.9 °F
Galveston Pier TX 84.9 °F
Galveston Bay (North Jetty), TX 84.9 °F
Rollover Pass, TX 84.9 °F

Nearby Weather Stations